Albany Township, Maine
Current Conditions -  °F | °C
As of 4:52 PM on Sunday 25 Jan 2015 (Local Time) from KBML Reporting Station
Clear Clear  
Wind Chill: -5°   Ceiling: Unl
Heat Index:   Visibility: 10mi
Dew Point: -5°   Wind: 7mph
Humidity: 58%   Direction: 290°WNW
Pressure: 29.76"   Gusts: NA
Location:  44.3718°N, 70.8421°W
Report Text: KBML 252152Z AUTO 29006KT 10SM CLR M14/M21 A2976 RMK AO2 SLP098 T11391206
Loading
Personal Weather Stations






























Interactive Weather Map New forecast layout! Learn more

10-Day Weather Forecast

Advertisements
Track Severe Weather on mobile